Time;durP1;ratioP1;P1;durP2;ratioP2;P2;SDS_P1;SDS_P2;PMS_P1;PMS_P2;Temp;Humidity;BMP_temperature;BMP_pressure;BME280_temperature;BME280_humidity;BME280_pressure;Samples;Min_cycle;Max_cycle;Signal;HPM_P1;HPM_P2
2023/06/24 00:00:15;;;;;;;7.53;6.23;;;28.30;47.60;;;;;;5060180;28;20925;-82
2023/06/24 00:02:45;;;;;;;7.03;6.40;;;28.30;47.50;;;;;;5058435;28;20478;-82
2023/06/24 00:05:13;;;;;;;6.33;5.83;;;28.20;47.60;;;;;;5063958;28;20450;-82
2023/06/24 00:07:44;;;;;;;6.80;6.20;;;28.20;47.40;;;;;;5061824;28;20499;-82
2023/06/24 00:10:14;;;;;;;6.73;6.10;;;28.20;47.40;;;;;;5070313;28;20421;-83
2023/06/24 00:12:45;;;;;;;6.60;6.10;;;28.20;47.30;;;;;;5076029;28;20473;-82
2023/06/24 00:15:14;;;;;;;7.23;6.63;;;28.10;47.30;;;;;;5070423;28;20440;-82
2023/06/24 00:17:42;;;;;;;10.40;6.87;;;28.10;47.30;;;;;;5069647;28;20543;-82
2023/06/24 00:20:14;;;;;;;7.10;6.50;;;28.10;47.20;;;;;;5069792;28;20445;-82
2023/06/24 00:22:43;;;;;;;6.97;6.30;;;28.10;47.30;;;;;;5067961;28;20432;-82
2023/06/24 00:25:12;;;;;;;6.07;5.57;;;28.10;47.20;;;;;;5063667;28;20489;-82
2023/06/24 00:27:41;;;;;;;6.30;5.80;;;28.10;47.20;;;;;;5040423;28;20418;-82
2023/06/24 00:30:12;;;;;;;7.00;6.40;;;28.00;47.00;;;;;;5064241;28;20909;-82
2023/06/24 00:32:41;;;;;;;5.90;5.50;;;28.00;47.10;;;;;;5056358;28;20425;-82
2023/06/24 00:35:10;;;;;;;6.43;5.73;;;28.00;47.00;;;;;;5050639;28;20473;-82
2023/06/24 00:37:38;;;;;;;7.40;6.47;;;28.00;47.00;;;;;;5049319;28;20533;-82
2023/06/24 00:40:10;;;;;;;6.30;5.80;;;27.90;46.80;;;;;;5064759;28;20454;-82
2023/06/24 00:42:38;;;;;;;6.50;5.90;;;27.90;46.90;;;;;;5065113;28;20483;-82
2023/06/24 00:45:07;;;;;;;6.57;5.70;;;27.90;46.90;;;;;;5051443;28;20954;-82
2023/06/24 00:47:36;;;;;;;6.17;5.57;;;27.80;46.90;;;;;;5053813;28;20873;-82
2023/06/24 00:50:05;;;;;;;5.40;5.00;;;27.90;47.00;;;;;;5041024;28;20434;-82
2023/06/24 00:52:33;;;;;;;5.77;5.37;;;27.90;47.00;;;;;;5049287;28;20484;-81
2023/06/24 00:55:02;;;;;;;6.87;6.07;;;27.80;47.00;;;;;;5056457;28;20441;-82
2023/06/24 00:57:31;;;;;;;5.80;5.30;;;27.80;47.00;;;;;;5057191;28;20417;-82
2023/06/24 00:59:59;;;;;;;6.13;5.63;;;27.80;47.10;;;;;;5060403;28;20446;-83
2023/06/24 01:02:28;;;;;;;5.97;5.47;;;27.80;47.00;;;;;;5068140;28;20413;-82
2023/06/24 01:04:58;;;;;;;6.43;5.90;;;27.70;47.00;;;;;;5053103;28;20462;-82
2023/06/24 01:07:27;;;;;;;7.07;6.40;;;27.70;46.90;;;;;;5036355;28;20451;-82
2023/06/24 01:09:55;;;;;;;6.27;5.67;;;27.70;47.00;;;;;;5049516;28;20417;-82
2023/06/24 01:12:23;;;;;;;5.20;4.90;;;27.70;47.00;;;;;;5062343;28;20471;-82
2023/06/24 01:14:51;;;;;;;5.93;5.47;;;27.70;46.80;;;;;;5041935;28;20474;-82
2023/06/24 01:17:23;;;;;;;6.20;5.70;;;27.70;46.90;;;;;;5076238;28;20458;-82
2023/06/24 01:19:57;;;;;;;7.03;6.40;;;27.60;46.80;;;;;;5060903;28;20474;-82
2023/06/24 01:22:40;;;;;;;7.93;7.13;;;27.60;46.80;;;;;;5055205;28;20486;-82
2023/06/24 01:25:14;;;;;;;7.57;6.93;;;27.60;46.90;;;;;;5039110;28;20506;-82
2023/06/24 01:27:54;;;;;;;10.33;6.87;;;27.60;47.00;;;;;;5047757;28;20451;-82
2023/06/24 01:30:42;;;;;;;8.67;7.97;;;27.60;46.90;;;;;;5065079;28;21002;-82
2023/06/24 01:33:14;;;;;;;9.63;8.63;;;27.50;46.80;;;;;;5037049;28;20418;-82
2023/06/24 01:35:42;;;;;;;9.70;8.80;;;27.50;46.80;;;;;;5052731;28;20427;-83
2023/06/24 01:38:14;;;;;;;9.33;8.33;;;27.50;46.70;;;;;;5055987;28;20470;-82
2023/06/24 01:40:44;;;;;;;9.27;8.37;;;27.50;46.70;;;;;;5055214;28;20982;-82
2023/06/24 01:43:12;;;;;;;11.77;9.50;;;27.50;46.70;;;;;;5043364;28;20452;-82
2023/06/24 01:45:42;;;;;;;11.27;9.60;;;27.50;46.60;;;;;;5059830;28;20484;-82
2023/06/24 01:48:14;;;;;;;11.33;10.13;;;27.40;46.50;;;;;;5056168;28;20474;-80
2023/06/24 01:50:48;;;;;;;12.20;10.67;;;27.40;46.50;;;;;;5055689;28;20434;-80
2023/06/24 01:53:16;;;;;;;11.83;10.73;;;27.40;46.50;;;;;;5077529;28;20449;-81
2023/06/24 01:55:44;;;;;;;11.90;10.80;;;27.40;46.40;;;;;;5057741;28;20447;-81
2023/06/24 01:58:12;;;;;;;12.63;11.33;;;27.40;46.60;;;;;;5047566;28;20543;-82
2023/06/24 02:00:40;;;;;;;13.07;11.70;;;27.40;46.40;;;;;;5074676;28;20404;-80
2023/06/24 02:03:08;;;;;;;12.73;11.27;;;27.30;46.30;;;;;;5048826;28;20403;-81
2023/06/24 02:05:39;;;;;;;13.43;12.03;;;27.30;46.40;;;;;;5062761;28;20452;-81
2023/06/24 02:08:09;;;;;;;13.20;11.47;;;27.30;46.40;;;;;;5073284;28;20499;-81
2023/06/24 02:10:38;;;;;;;12.90;11.60;;;27.30;46.30;;;;;;5065549;28;20471;-81
2023/06/24 02:13:06;;;;;;;12.87;11.50;;;27.30;46.20;;;;;;5049154;28;20421;-80
2023/06/24 02:15:34;;;;;;;12.93;11.60;;;27.30;46.20;;;;;;5057557;28;20444;-81
2023/06/24 02:18:02;;;;;;;17.40;11.90;;;27.20;46.30;;;;;;5065522;28;20438;-81
2023/06/24 02:20:31;;;;;;;13.20;11.90;;;27.20;46.30;;;;;;5058498;28;20464;-81
2023/06/24 02:23:00;;;;;;;12.73;11.53;;;27.20;46.20;;;;;;5065716;28;20439;-80
2023/06/24 02:25:29;;;;;;;14.43;12.07;;;27.20;46.20;;;;;;5058112;28;20462;-80
2023/06/24 02:27:57;;;;;;;13.27;11.53;;;27.20;46.20;;;;;;5053199;28;20541;-81
2023/06/24 02:30:25;;;;;;;13.10;11.70;;;27.20;46.00;;;;;;5061809;28;20451;-81
2023/06/24 02:32:54;;;;;;;12.83;11.53;;;27.20;46.00;;;;;;5058251;28;20437;-81
2023/06/24 02:35:22;;;;;;;13.03;11.63;;;27.10;46.10;;;;;;5065782;28;20537;-81
2023/06/24 02:37:51;;;;;;;13.50;11.60;;;27.10;46.00;;;;;;5061079;28;20425;-80
2023/06/24 02:40:20;;;;;;;12.20;10.90;;;27.10;46.00;;;;;;5056141;28;20510;-81
2023/06/24 02:42:48;;;;;;;12.20;11.00;;;27.10;46.00;;;;;;5073342;28;20465;-80
2023/06/24 02:45:17;;;;;;;12.40;11.10;;;27.10;45.90;;;;;;5059382;28;20532;-80
2023/06/24 02:47:46;;;;;;;13.73;11.13;;;27.10;45.90;;;;;;5050945;28;20419;-80
2023/06/24 02:50:14;;;;;;;12.17;10.90;;;27.00;45.90;;;;;;5051642;28;20439;-81
2023/06/24 02:52:43;;;;;;;11.90;10.67;;;27.00;45.90;;;;;;5064721;28;20417;-79
2023/06/24 02:55:11;;;;;;;12.97;11.60;;;27.00;45.90;;;;;;5050789;28;20436;-80
2023/06/24 02:57:41;;;;;;;12.33;11.10;;;27.00;46.00;;;;;;5060935;28;20409;-80
2023/06/24 03:00:12;;;;;;;12.50;11.30;;;27.00;45.80;;;;;;5058661;28;20467;-80
2023/06/24 03:02:41;;;;;;;11.80;10.57;;;27.00;45.80;;;;;;5055021;28;20455;-80
2023/06/24 03:05:09;;;;;;;12.13;10.80;;;27.00;45.90;;;;;;5058103;28;20447;-80
2023/06/24 03:07:38;;;;;;;11.70;10.40;;;27.00;45.80;;;;;;5043779;28;20430;-80
2023/06/24 03:10:08;;;;;;;10.87;9.77;;;27.00;45.90;;;;;;5067530;28;20540;-80
2023/06/24 03:12:36;;;;;;;11.90;10.40;;;27.00;45.90;;;;;;5059220;28;20469;-80
2023/06/24 03:15:06;;;;;;;11.27;10.10;;;26.90;45.80;;;;;;5067753;28;20496;-80
2023/06/24 03:17:34;;;;;;;11.43;10.30;;;26.90;45.80;;;;;;5063896;28;20470;-80
2023/06/24 03:20:04;;;;;;;11.17;9.97;;;26.90;45.80;;;;;;5053259;28;20472;-80
2023/06/24 03:22:32;;;;;;;11.00;9.90;;;26.90;45.80;;;;;;5066155;28;20470;-80
2023/06/24 03:25:00;;;;;;;10.77;9.70;;;26.90;45.80;;;;;;5069086;28;20434;-81
2023/06/24 03:27:29;;;;;;;10.10;9.10;;;26.90;45.80;;;;;;5061967;28;20450;-81
2023/06/24 03:29:57;;;;;;;9.87;8.97;;;26.80;45.70;;;;;;5058065;28;20413;-80
2023/06/24 03:32:26;;;;;;;10.50;9.40;;;26.90;45.80;;;;;;5048544;28;20455;-81
2023/06/24 03:34:54;;;;;;;9.80;8.80;;;26.80;45.70;;;;;;5047432;28;20446;-81
2023/06/24 03:37:23;;;;;;;10.13;9.13;;;26.80;45.60;;;;;;5053106;28;20532;-81
2023/06/24 03:39:51;;;;;;;9.50;8.60;;;26.80;45.60;;;;;;5055353;28;20528;-80
2023/06/24 03:42:19;;;;;;;13.07;9.30;;;26.80;45.50;;;;;;5068242;28;20492;-80
2023/06/24 03:44:47;;;;;;;10.67;9.43;;;26.70;45.60;;;;;;5054760;28;20532;-80
2023/06/24 03:47:15;;;;;;;9.60;8.60;;;26.80;45.70;;;;;;5047904;28;20537;-81
2023/06/24 03:49:45;;;;;;;9.37;8.47;;;26.70;45.60;;;;;;5055019;28;20494;-80
2023/06/24 03:52:13;;;;;;;10.30;8.97;;;26.70;45.60;;;;;;5067862;28;20469;-81
2023/06/24 03:54:41;;;;;;;9.03;8.23;;;26.70;45.50;;;;;;5057679;28;20462;-81
2023/06/24 03:57:09;;;;;;;8.60;7.80;;;26.70;45.60;;;;;;5057223;28;20538;-81
2023/06/24 03:59:37;;;;;;;8.53;7.70;;;26.70;45.80;;;;;;5059461;28;20467;-81
2023/06/24 04:02:07;;;;;;;8.10;7.40;;;26.70;45.70;;;;;;5055623;28;20508;-80
2023/06/24 04:04:36;;;;;;;9.43;8.53;;;26.60;45.60;;;;;;5062471;28;20466;-81
2023/06/24 04:07:06;;;;;;;8.00;7.20;;;26.60;45.50;;;;;;5058548;28;20450;-81
2023/06/24 04:09:34;;;;;;;8.10;7.40;;;26.60;45.50;;;;;;5056033;28;20441;-81
2023/06/24 04:12:03;;;;;;;8.60;7.80;;;26.60;45.50;;;;;;5064484;28;20456;-81
2023/06/24 04:14:30;;;;;;;8.27;7.57;;;26.70;45.60;;;;;;5037032;28;20521;-81
2023/06/24 04:16:59;;;;;;;8.20;7.40;;;26.60;45.50;;;;;;5072754;28;20519;-81
2023/06/24 04:19:27;;;;;;;8.43;7.67;;;26.60;45.60;;;;;;5077124;28;20480;-81
2023/06/24 04:21:55;;;;;;;8.17;7.37;;;26.60;45.60;;;;;;5076428;28;20482;-81
2023/06/24 04:24:25;;;;;;;8.70;7.60;;;26.60;45.50;;;;;;5056843;28;20467;-80
2023/06/24 04:26:54;;;;;;;7.77;7.00;;;26.60;45.40;;;;;;5057874;28;20419;-81
2023/06/24 04:29:23;;;;;;;7.30;6.70;;;26.60;45.50;;;;;;5048548;28;20467;-81
2023/06/24 04:31:51;;;;;;;8.00;7.00;;;26.60;45.50;;;;;;5053591;28;20527;-81
2023/06/24 04:34:19;;;;;;;6.80;6.30;;;26.60;45.40;;;;;;5061049;28;20544;-81
2023/06/24 04:36:47;;;;;;;7.30;6.70;;;26.60;45.50;;;;;;5060418;28;20429;-82
2023/06/24 04:39:15;;;;;;;7.37;6.67;;;26.60;45.50;;;;;;5056778;28;20470;-81
2023/06/24 04:41:46;;;;;;;6.60;6.00;;;26.60;45.60;;;;;;5056609;28;20550;-81
2023/06/24 04:44:13;;;;;;;6.40;5.90;;;26.50;45.50;;;;;;5056728;28;20541;-81
2023/06/24 04:46:42;;;;;;;7.40;6.70;;;26.60;45.50;;;;;;5056298;28;20425;-81
2023/06/24 04:49:10;;;;;;;7.40;6.60;;;26.60;45.50;;;;;;5052139;28;20430;-81
2023/06/24 04:51:40;;;;;;;7.13;6.43;;;26.50;45.60;;;;;;5049902;28;20436;-81
2023/06/24 04:54:08;;;;;;;7.10;6.50;;;26.60;45.70;;;;;;5057298;28;20472;-81
2023/06/24 04:56:36;;;;;;;8.50;7.70;;;26.60;45.80;;;;;;5056389;28;20485;-81
2023/06/24 04:59:06;;;;;;;7.13;6.53;;;26.60;45.90;;;;;;5072975;28;20444;-82
2023/06/24 05:01:34;;;;;;;6.70;6.10;;;26.60;45.80;;;;;;5061267;28;20486;-81
2023/06/24 05:04:02;;;;;;;7.37;6.40;;;26.60;45.90;;;;;;5060365;28;20445;-81
2023/06/24 05:06:30;;;;;;;9.30;6.57;;;26.60;46.10;;;;;;5061290;28;20552;-81
2023/06/24 05:08:59;;;;;;;7.17;6.23;;;26.50;46.10;;;;;;5070897;28;20478;-82
2023/06/24 05:11:27;;;;;;;6.37;5.77;;;26.60;46.10;;;;;;5058671;28;20444;-81
2023/06/24 05:13:55;;;;;;;7.40;6.00;;;26.60;46.00;;;;;;5050440;28;20471;-82
2023/06/24 05:16:24;;;;;;;6.37;5.87;;;26.60;46.00;;;;;;5055367;28;20445;-81
2023/06/24 05:18:53;;;;;;;5.80;5.37;;;26.60;46.00;;;;;;5060366;28;20418;-80
2023/06/24 05:21:21;;;;;;;7.67;5.97;;;26.60;45.90;;;;;;5047819;28;20549;-79
2023/06/24 05:23:49;;;;;;;6.40;5.80;;;26.60;45.90;;;;;;5052468;28;20521;-81
2023/06/24 05:26:17;;;;;;;6.60;6.00;;;26.60;45.90;;;;;;5053265;28;20418;-81
2023/06/24 05:28:45;;;;;;;6.73;6.13;;;26.60;46.10;;;;;;5053122;28;20474;-80
2023/06/24 05:31:13;;;;;;;5.77;5.17;;;26.60;46.10;;;;;;5055586;28;20447;-80
2023/06/24 05:33:43;;;;;;;6.07;5.53;;;26.60;46.10;;;;;;5040475;28;20463;-81
2023/06/24 05:36:11;;;;;;;6.10;5.60;;;26.60;46.20;;;;;;5059711;28;20462;-80
2023/06/24 05:38:39;;;;;;;6.23;5.63;;;26.60;46.20;;;;;;5051692;28;20446;-80
2023/06/24 05:41:07;;;;;;;6.13;5.53;;;26.60;46.20;;;;;;5060013;28;20983;-81
2023/06/24 05:43:36;;;;;;;8.30;5.87;;;26.60;46.20;;;;;;5053058;28;20452;-81
2023/06/24 05:46:04;;;;;;;6.13;5.63;;;26.70;46.30;;;;;;5057399;28;20470;-81
2023/06/24 05:48:32;;;;;;;6.13;5.63;;;26.70;46.30;;;;;;5059838;28;20481;-81
2023/06/24 05:51:02;;;;;;;6.40;5.33;;;26.70;46.50;;;;;;5055054;28;20543;-81
2023/06/24 05:53:30;;;;;;;5.60;5.20;;;26.60;46.40;;;;;;5051486;28;20464;-80
2023/06/24 05:55:58;;;;;;;5.87;5.37;;;26.70;46.60;;;;;;5052691;28;20546;-81
2023/06/24 05:58:27;;;;;;;5.90;5.40;;;26.70;46.60;;;;;;5052693;28;20471;-81
2023/06/24 06:00:55;;;;;;;5.70;5.20;;;26.70;46.80;;;;;;5058914;28;20524;-81
2023/06/24 06:03:23;;;;;;;6.90;5.53;;;26.70;46.70;;;;;;5046454;28;20943;-81
2023/06/24 06:05:52;;;;;;;5.70;5.20;;;26.70;46.90;;;;;;5056296;28;20473;-81
2023/06/24 06:08:21;;;;;;;5.30;4.90;;;26.80;46.90;;;;;;5075571;28;20463;-82
2023/06/24 06:10:49;;;;;;;5.27;4.87;;;26.80;46.90;;;;;;5053111;28;20478;-81
2023/06/24 06:13:21;;;;;;;5.90;5.37;;;26.80;47.00;;;;;;5064266;28;20465;-81
2023/06/24 06:15:48;;;;;;;5.40;4.90;;;26.80;47.10;;;;;;5057705;28;20457;-81
2023/06/24 06:18:16;;;;;;;5.30;4.80;;;26.90;47.10;;;;;;5059758;28;20465;-81
2023/06/24 06:20:44;;;;;;;5.23;4.80;;;26.90;47.10;;;;;;5059887;28;20470;-80
2023/06/24 06:23:12;;;;;;;5.00;4.60;;;26.90;47.10;;;;;;5060202;28;20447;-81
2023/06/24 06:25:42;;;;;;;4.90;4.50;;;26.90;47.10;;;;;;5058362;28;20467;-81
2023/06/24 06:28:09;;;;;;;5.37;4.90;;;26.90;47.00;;;;;;5055003;28;20438;-81
2023/06/24 06:30:39;;;;;;;5.23;4.83;;;27.00;47.00;;;;;;5039678;28;20418;-80
2023/06/24 06:33:07;;;;;;;4.60;4.20;;;27.00;47.10;;;;;;5040945;28;20414;-81
2023/06/24 06:35:35;;;;;;;5.20;4.70;;;27.00;47.10;;;;;;5051707;28;20460;-80
2023/06/24 06:38:03;;;;;;;5.10;4.70;;;27.00;47.10;;;;;;5039219;28;20422;-81
2023/06/24 06:40:31;;;;;;;4.17;3.87;;;27.00;47.10;;;;;;5046915;28;20461;-82
2023/06/24 06:43:01;;;;;;;5.73;5.13;;;27.00;47.00;;;;;;5039115;28;20452;-82
2023/06/24 06:45:29;;;;;;;4.70;4.30;;;27.10;47.00;;;;;;5040941;28;20441;-83
2023/06/24 06:47:59;;;;;;;4.77;4.37;;;27.20;47.00;;;;;;5042308;28;20480;-82
2023/06/24 06:50:28;;;;;;;4.67;4.37;;;27.10;46.90;;;;;;5041274;28;20422;-80
2023/06/24 06:52:56;;;;;;;6.23;4.80;;;27.20;47.00;;;;;;5039470;28;20446;-80
2023/06/24 06:55:25;;;;;;;4.73;4.43;;;27.20;47.00;;;;;;5051042;28;20494;-80
2023/06/24 06:57:53;;;;;;;4.50;4.10;;;27.30;47.00;;;;;;5043115;28;20491;-80
2023/06/24 07:00:23;;;;;;;6.33;4.60;;;27.30;46.90;;;;;;5048056;28;20487;-81
2023/06/24 07:02:52;;;;;;;5.30;4.80;;;27.30;46.90;;;;;;5038830;28;20512;-80
2023/06/24 07:05:20;;;;;;;4.47;4.17;;;27.40;46.90;;;;;;5037614;28;20989;-80
2023/06/24 07:07:49;;;;;;;4.50;4.10;;;27.40;47.60;;;;;;5037495;28;20470;-80
2023/06/24 07:10:19;;;;;;;5.40;5.00;;;27.50;47.00;;;;;;5043058;28;20471;-81
2023/06/24 07:12:47;;;;;;;5.00;4.50;;;27.50;47.00;;;;;;5045162;28;20414;-80
2023/06/24 07:15:19;;;;;;;5.00;4.53;;;27.60;47.00;;;;;;5050143;28;20478;-81
2023/06/24 07:17:49;;;;;;;4.83;4.30;;;27.60;47.00;;;;;;5044990;28;20433;-81
2023/06/24 07:20:17;;;;;;;5.00;4.60;;;27.60;47.00;;;;;;5042878;28;20902;-81
2023/06/24 07:22:45;;;;;;;4.13;3.90;;;27.70;47.10;;;;;;5042251;28;20479;-81
2023/06/24 07:25:13;;;;;;;4.90;4.50;;;27.70;47.00;;;;;;5057252;28;20445;-80
2023/06/24 07:27:42;;;;;;;4.43;4.10;;;27.80;47.00;;;;;;5039905;28;20452;-82
2023/06/24 07:30:10;;;;;;;5.93;4.83;;;27.90;47.00;;;;;;5053692;28;20438;-80
2023/06/24 07:32:38;;;;;;;4.70;4.40;;;27.90;47.00;;;;;;5048308;28;20418;-81
2023/06/24 07:35:09;;;;;;;4.60;4.20;;;28.00;47.00;;;;;;5049446;28;20458;-82
2023/06/24 07:37:38;;;;;;;4.40;4.00;;;28.00;46.90;;;;;;5061381;28;20405;-83
2023/06/24 07:40:09;;;;;;;4.43;4.13;;;28.10;46.90;;;;;;5057505;28;20414;-82
2023/06/24 07:42:37;;;;;;;4.37;4.00;;;28.20;46.90;;;;;;5050763;28;20518;-80
2023/06/24 07:45:06;;;;;;;4.07;3.77;;;28.30;46.90;;;;;;5040029;28;20459;-81
2023/06/24 07:47:34;;;;;;;4.60;4.20;;;28.30;46.80;;;;;;5037721;28;20447;-80
2023/06/24 07:50:02;;;;;;;5.83;4.77;;;28.30;46.80;;;;;;5044772;28;20505;-81
2023/06/24 07:52:32;;;;;;;4.10;3.80;;;28.40;46.80;;;;;;5048043;28;20418;-80
2023/06/24 07:55:00;;;;;;;4.03;3.83;;;28.40;46.80;;;;;;5050111;28;20503;-80
2023/06/24 07:57:28;;;;;;;4.83;4.43;;;28.40;46.80;;;;;;5054738;28;20428;-81
2023/06/24 07:59:57;;;;;;;4.40;4.10;;;28.50;46.70;;;;;;5047534;28;20430;-80
2023/06/24 08:02:26;;;;;;;4.87;4.33;;;28.60;46.80;;;;;;5052359;28;20441;-81
2023/06/24 08:04:54;;;;;;;9.10;4.00;;;28.60;46.70;;;;;;5063471;28;20465;-81
2023/06/24 08:07:23;;;;;;;4.40;4.10;;;28.70;46.60;;;;;;5059308;28;20445;-81
2023/06/24 08:09:52;;;;;;;4.03;3.83;;;28.70;46.50;;;;;;5060238;28;20545;-81
2023/06/24 08:12:21;;;;;;;4.60;4.20;;;28.80;46.50;;;;;;5060626;28;20446;-81
2023/06/24 08:14:49;;;;;;;4.33;4.00;;;28.80;46.40;;;;;;5063749;28;20477;-80
2023/06/24 08:17:17;;;;;;;4.83;4.33;;;28.90;46.40;;;;;;5047861;28;20473;-80
2023/06/24 08:19:45;;;;;;;6.37;4.40;;;29.00;46.40;;;;;;5043695;28;20473;-81
2023/06/24 08:22:13;;;;;;;4.70;4.30;;;29.00;46.30;;;;;;5054229;28;20464;-81
2023/06/24 08:24:42;;;;;;;4.87;4.47;;;29.10;46.20;;;;;;5058804;28;20549;-81
2023/06/24 08:27:12;;;;;;;4.83;4.17;;;29.20;46.10;;;;;;5059657;28;20451;-81
2023/06/24 08:29:40;;;;;;;4.40;4.20;;;29.30;46.10;;;;;;5049830;28;20426;-81
2023/06/24 08:32:08;;;;;;;4.77;4.37;;;29.40;46.00;;;;;;5050824;28;20458;-81
2023/06/24 08:34:36;;;;;;;4.63;4.20;;;29.50;45.90;;;;;;5040477;28;20537;-81
2023/06/24 08:37:04;;;;;;;4.80;4.50;;;29.60;45.80;;;;;;5039653;28;20459;-80
2023/06/24 08:39:32;;;;;;;4.90;4.40;;;29.60;45.70;;;;;;5045312;28;20447;-82
2023/06/24 08:42:00;;;;;;;4.80;4.30;;;29.70;45.60;;;;;;5041132;28;20569;-82
2023/06/24 08:44:30;;;;;;;4.07;3.77;;;29.80;45.60;;;;;;5041702;28;20498;-82
2023/06/24 08:46:58;;;;;;;4.20;4.00;;;29.90;45.60;;;;;;5044968;28;20479;-80
2023/06/24 08:49:29;;;;;;;4.67;4.30;;;30.00;45.40;;;;;;5050687;28;20548;-81
2023/06/24 08:52:01;;;;;;;4.50;4.20;;;30.10;45.30;;;;;;5042633;28;20450;-81
2023/06/24 08:54:31;;;;;;;4.67;4.37;;;30.20;45.20;;;;;;5052012;28;20462;-80
2023/06/24 08:57:04;;;;;;;5.50;4.27;;;30.30;45.20;;;;;;5038998;28;20438;-80
2023/06/24 08:59:34;;;;;;;5.07;4.67;;;30.40;45.10;;;;;;5050182;28;20513;-80
2023/06/24 09:02:02;;;;;;;4.20;3.90;;;30.50;45.00;;;;;;5051162;28;20457;-80
2023/06/24 09:04:31;;;;;;;4.60;4.30;;;30.60;45.00;;;;;;5039987;28;20475;-81
2023/06/24 09:06:59;;;;;;;4.53;4.00;;;30.60;44.80;;;;;;5054341;28;20461;-81
2023/06/24 09:09:28;;;;;;;4.70;4.40;;;30.80;44.90;;;;;;5040995;28;20456;-81
2023/06/24 09:11:57;;;;;;;4.50;4.17;;;30.90;44.80;;;;;;5050020;28;20468;-82
2023/06/24 09:14:26;;;;;;;3.97;3.67;;;30.90;44.60;;;;;;5050517;28;20479;-82
2023/06/24 09:16:56;;;;;;;4.83;3.93;;;31.00;44.60;;;;;;5046801;28;20467;-81
2023/06/24 09:19:24;;;;;;;4.37;3.90;;;31.20;44.50;;;;;;5050559;28;20434;-81
2023/06/24 09:21:53;;;;;;;6.23;4.17;;;31.20;44.40;;;;;;5046675;28;20494;-82
2023/06/24 09:24:21;;;;;;;6.80;4.00;;;31.30;44.30;;;;;;5037093;28;21089;-81
2023/06/24 09:26:49;;;;;;;4.10;3.87;;;31.40;44.20;;;;;;5036341;28;20466;-80
2023/06/24 09:29:17;;;;;;;3.90;3.70;;;31.50;44.10;;;;;;5036660;28;20459;-81
2023/06/24 09:31:58;;;;;;;4.27;3.67;;;31.60;44.10;;;;;;5038642;28;20498;-82
2023/06/24 09:34:27;;;;;;;4.20;3.93;;;31.70;44.00;;;;;;5035840;28;20467;-81
2023/06/24 09:36:55;;;;;;;4.00;3.70;;;31.80;43.70;;;;;;5040805;28;20464;-81
2023/06/24 09:39:28;;;;;;;3.60;3.40;;;31.90;43.70;;;;;;5040375;28;20687;-81
2023/06/24 09:41:57;;;;;;;5.93;4.57;;;32.00;43.80;;;;;;5046552;28;20421;-81
2023/06/24 09:44:26;;;;;;;4.30;4.10;;;32.10;43.50;;;;;;5051644;28;20471;-80
2023/06/24 09:46:55;;;;;;;3.80;3.60;;;32.10;43.40;;;;;;5045698;28;20450;-79
2023/06/24 09:49:24;;;;;;;4.20;4.00;;;32.20;43.30;;;;;;5040569;28;20456;-82
2023/06/24 09:51:56;;;;;;;4.30;3.97;;;32.30;43.20;;;;;;5044806;28;20456;-81
2023/06/24 09:54:27;;;;;;;4.27;3.93;;;32.40;43.30;;;;;;5048845;28;20470;-83
2023/06/24 09:57:02;;;;;;;4.23;3.93;;;32.50;43.20;;;;;;5050409;28;20446;-82
2023/06/24 09:59:31;;;;;;;4.07;3.87;;;32.60;43.00;;;;;;5043766;28;20460;-79
2023/06/24 10:02:00;;;;;;;4.27;3.87;;;32.70;43.50;;;;;;5041483;28;20509;-81
2023/06/24 10:04:29;;;;;;;7.73;3.80;;;32.80;42.80;;;;;;5037316;28;21049;-81
2023/06/24 10:06:57;;;;;;;6.43;3.90;;;32.90;42.80;;;;;;5052523;28;20472;-81
2023/06/24 10:09:25;;;;;;;5.40;4.30;;;33.00;42.80;;;;;;5056579;28;20528;-81
2023/06/24 10:11:54;;;;;;;3.90;3.60;;;33.10;42.50;;;;;;5040657;28;20432;-79
2023/06/24 10:14:22;;;;;;;4.00;3.70;;;33.10;42.40;;;;;;5036702;28;20467;-82
2023/06/24 10:16:50;;;;;;;3.73;3.50;;;33.20;42.30;;;;;;5047851;28;20458;-81
2023/06/24 10:19:22;;;;;;;4.20;3.90;;;33.30;42.10;;;;;;5053017;28;20545;-81
2023/06/24 10:21:52;;;;;;;4.27;4.03;;;33.40;42.10;;;;;;5055846;28;20440;-82
2023/06/24 10:24:32;;;;;;;4.30;3.90;;;33.50;42.00;;;;;;5056985;28;20514;-81
2023/06/24 10:27:04;;;;;;;3.93;3.63;;;33.60;42.00;;;;;;5052735;28;20542;-81
2023/06/24 10:29:34;;;;;;;3.70;3.40;;;33.80;42.00;;;;;;5052785;28;20478;-82
2023/06/24 10:32:04;;;;;;;4.40;3.60;;;33.80;41.70;;;;;;5048923;28;20531;-81
2023/06/24 10:34:35;;;;;;;3.87;3.67;;;33.80;41.40;;;;;;5045376;28;20593;-81
2023/06/24 10:37:08;;;;;;;4.23;3.83;;;33.90;41.20;;;;;;5049094;28;20442;-81
2023/06/24 10:39:46;;;;;;;3.40;3.20;;;34.00;41.10;;;;;;5053127;28;20454;-81
2023/06/24 10:42:42;;;;;;;4.20;3.90;;;34.10;41.00;;;;;;5057329;28;20868;-82
2023/06/24 10:45:15;;;;;;;4.27;3.90;;;34.20;41.30;;;;;;5055049;28;20477;-82
2023/06/24 10:47:44;;;;;;;4.27;3.70;;;34.10;40.40;;;;;;5037119;28;20533;-82
2023/06/24 10:50:15;;;;;;;3.87;3.67;;;34.10;41.10;;;;;;5033942;28;20458;-82
2023/06/24 10:52:44;;;;;;;3.97;3.60;;;34.20;41.20;;;;;;5032755;28;20522;-82
2023/06/24 10:55:14;;;;;;;4.00;3.80;;;34.30;40.90;;;;;;5033733;28;20487;-83
2023/06/24 10:57:43;;;;;;;3.90;3.63;;;34.30;40.90;;;;;;5038725;28;20454;-82
2023/06/24 11:00:12;;;;;;;4.20;3.80;;;34.30;40.90;;;;;;5046163;28;20470;-83
2023/06/24 11:02:40;;;;;;;3.03;2.93;;;34.20;41.00;;;;;;5042288;28;20505;-83
2023/06/24 11:05:09;;;;;;;4.00;3.80;;;34.20;41.10;;;;;;5044206;28;20474;-83
2023/06/24 11:07:39;;;;;;;4.47;3.70;;;34.30;41.00;;;;;;5035615;28;20471;-82
2023/06/24 11:10:08;;;;;;;3.87;3.67;;;34.30;41.00;;;;;;5035028;28;20482;-83
2023/06/24 11:12:40;;;;;;;4.10;3.90;;;34.30;41.10;;;;;;5045116;28;20451;-83
2023/06/24 11:15:10;;;;;;;4.77;4.40;;;34.30;41.00;;;;;;5036256;28;20459;-83
2023/06/24 11:17:38;;;;;;;5.87;3.83;;;34.30;41.20;;;;;;5046331;28;20470;-81
2023/06/24 11:20:09;;;;;;;4.57;4.17;;;34.40;41.20;;;;;;5048085;28;20443;-84
2023/06/24 11:22:38;;;;;;;4.10;3.90;;;34.40;41.00;;;;;;5047865;28;20938;-83
2023/06/24 11:25:07;;;;;;;4.50;4.20;;;34.40;40.60;;;;;;5054684;28;20561;-83
2023/06/24 11:27:38;;;;;;;4.67;4.27;;;34.40;41.00;;;;;;5056493;28;20488;-81
2023/06/24 11:30:09;;;;;;;4.27;4.07;;;34.40;41.00;;;;;;5060326;28;20530;-82
2023/06/24 11:32:37;;;;;;;4.33;4.03;;;34.60;41.00;;;;;;5054860;28;20431;-82
2023/06/24 11:35:07;;;;;;;4.00;3.63;;;34.60;40.80;;;;;;5054887;28;20459;-82
2023/06/24 11:37:35;;;;;;;4.37;4.10;;;34.70;40.50;;;;;;5060655;28;20518;-82
2023/06/24 11:40:05;;;;;;;4.33;4.10;;;34.80;40.20;;;;;;5061840;28;20488;-83
2023/06/24 11:42:33;;;;;;;4.00;3.80;;;34.90;40.20;;;;;;5058701;28;20450;-82
2023/06/24 11:45:02;;;;;;;4.37;3.97;;;34.90;40.30;;;;;;5064161;28;20505;-82
2023/06/24 11:47:32;;;;;;;3.93;3.80;;;34.90;40.60;;;;;;5060215;28;20451;-82
2023/06/24 11:50:02;;;;;;;4.47;4.20;;;35.00;40.30;;;;;;5058800;28;20450;-83
2023/06/24 11:52:34;;;;;;;4.40;4.10;;;35.00;39.70;;;;;;5056113;28;20436;-83
2023/06/24 11:55:03;;;;;;;3.83;3.63;;;35.10;39.80;;;;;;5060598;28;20494;-83
2023/06/24 11:57:52;;;;;;;4.07;3.83;;;35.20;39.60;;;;;;5057728;28;20493;-82
2023/06/24 12:00:23;;;;;;;4.10;3.90;;;35.10;39.60;;;;;;5048999;28;20467;-83
2023/06/24 12:02:56;;;;;;;4.40;4.00;;;35.00;39.40;;;;;;5055407;28;20453;-84
2023/06/24 12:05:26;;;;;;;4.40;4.10;;;35.10;39.70;;;;;;5051358;28;20478;-84
2023/06/24 12:07:58;;;;;;;4.00;3.83;;;35.20;39.60;;;;;;5049733;28;20492;-83
2023/06/24 12:10:29;;;;;;;5.23;3.87;;;35.30;39.60;;;;;;5044745;28;20451;-86
2023/06/24 12:12:59;;;;;;;4.67;4.17;;;35.30;39.30;;;;;;5041525;28;20530;-84
2023/06/24 12:15:27;;;;;;;3.93;3.73;;;35.40;39.20;;;;;;5045137;28;20471;-84
2023/06/24 12:17:55;;;;;;;4.53;3.50;;;35.40;39.20;;;;;;5063026;28;20446;-84
2023/06/24 12:20:27;;;;;;;3.83;3.63;;;35.40;38.70;;;;;;5062574;28;21004;-85
2023/06/24 12:23:06;;;;;;;4.00;3.60;;;35.50;38.50;;;;;;5063077;28;20445;-84
2023/06/24 12:25:35;;;;;;;4.00;3.67;;;35.60;38.30;;;;;;5048618;28;20474;-84
2023/06/24 12:28:05;;;;;;;4.10;3.87;;;35.60;37.90;;;;;;5048285;28;20447;-82
2023/06/24 12:30:33;;;;;;;3.80;3.60;;;35.70;38.00;;;;;;5053095;28;20489;-82
2023/06/24 12:33:02;;;;;;;3.80;3.60;;;35.80;37.60;;;;;;5059735;28;20474;-83
2023/06/24 12:35:31;;;;;;;3.93;3.63;;;35.90;37.80;;;;;;5053445;28;20463;-82
2023/06/24 12:37:59;;;;;;;3.67;3.57;;;35.90;37.30;;;;;;5053374;28;20453;-83
2023/06/24 12:40:27;;;;;;;3.77;3.57;;;36.00;37.60;;;;;;5054381;28;20478;-84
2023/06/24 12:42:57;;;;;;;4.60;3.63;;;36.00;37.40;;;;;;5054276;28;20445;-83
2023/06/24 12:45:26;;;;;;;3.23;3.13;;;36.00;37.50;;;;;;5050549;28;20520;-82
2023/06/24 12:47:54;;;;;;;5.20;3.60;;;35.90;37.40;;;;;;5049938;28;20458;-83
2023/06/24 12:50:23;;;;;;;3.40;3.30;;;35.80;37.50;;;;;;5058170;28;20433;-82
2023/06/24 12:52:50;;;;;;;4.20;3.83;;;35.80;37.60;;;;;;5078706;28;20433;-82